Share

Naven, Sweden

Orslosa, Kallstorp (IVSTRAGT16) Elev 198 ft | 58.51 °N, 12.92 °E | Change Station

Current weather conditions updated 11 minutes ago

Clear
Clear
67.0 °F
Feels Like 67.0 °F
N
0.0
Wind Variable Wind from North
Gusts 0.0 mph
Sunrise 5:41 AM
Sunset 8:32 PM
Moon Waning Gibbous

Today is forecast to be Much Warmer than yesterday.

Pressure 30.18 in
Visibility 6.2 miles
Clouds
Dew Point 47 °F
Humidity 49%
Rainfall 0.00 in
Snow Depth Not available.
UV 1.9 out of 16
Pollen Not available.
Air Quality Not available.
Flu Activity Not available.
METAR ESIB 201220Z AUTO 36009KT 9999NDV NCD 13/08 Q1022

More Conditions Fewer Conditions

Pressure 30.18 in
Visibility 6.2 miles
Clouds
Dew Point 47 °F
Humidity 49%
Rainfall 0.00 in
Snow Depth Not available.
UV 1.9 out of 16
Pollen Not available.
Air Quality Not available.
Flu Activity Not available.
METAR ESIB 201220Z AUTO 36009KT 9999NDV NCD 13/08 Q1022

More Conditions Fewer Conditions

10-Day Weather Forecast

Almanac

Astronomy

Apr. 20, 2014 Rise Set
Actual Time 5:41 AM CEST 8:32 PM CEST
Civil Twilight 4:56 AM CEST 9:18 PM CEST
Nautical Twilight 3:55 AM CEST 10:20 PM CEST
Astronomical Twilight 2:26 AM CEST 11:52 PM CEST
Moon 1:28 AM CEST 9:12 AM CEST
Length of Visible Light 16h 22m
Length of Day
14h 51m
Tomorrow will be 5m 3s longer.
Waning Gibbous, 70% of the Moon is Illuminated
Today
Waning Gibbous
Apr 22
Last Quarter
Apr 29
New
May 6
First Quarter
May 14
Full

Yesterday's Extremes

Country Highs Country Lows

Community

  • EARLY FOGGY MORNING
    EARLY FOGGY MORNING
  • Easter Greetings
    Easter Greetings
  • Sunny day at the coast-Cape Arago Lighthouse
    Sunny day at the coast-Cape Arago Lighthouse
  • Cherry Blossoms
    Cherry Blossoms
  • White-Crowned Sparrow
    White-Crowned Sparrow

WunderPhotos

Upload Photos

1,703,184 photos uploaded!

Nearby

Snow Depth

Not available.

Coastal Water Temperatures

Place Temperature
No Stations Reporting

Earthquake Activity

City Distance Mag. Time & Date
No recent earthquake activity has been reported nearby.
Minimum magnitude displayed is 2.5.

Nearby Weather Stations

Station Location Temp. Dew Point Humidity Wind Precip. Elev Updated Type
Orslosa, Kallstorp, Lidkoping 67.0 °F 47 °F 49% North  at  0.0 mph 0.00 in / hr 198 ft 2:26 PM CEST Normal
Vinninga 64.2 °F 16 °F 15% East  at  15.0 mph 0.00 in / hr 269 ft 2:37 PM CEST Rapid Fire

Show More Stations Show Fewer Stations

What do you think?

We're not finished. Please let us know what you like, what you don't like, and what you are still missing.